sensor_id;sensor_type;location;lat;lon;timestamp;temperature;humidity
21481;DHT22;10902;48.158;8.634;2022-11-27T00:01:26;-1.70;99.90
21481;DHT22;10902;48.158;8.634;2022-11-27T00:03:53;-1.60;99.90
21481;DHT22;10902;48.158;8.634;2022-11-27T00:06:22;-1.60;99.90
21481;DHT22;10902;48.158;8.634;2022-11-27T00:08:48;-1.60;99.90
21481;DHT22;10902;48.158;8.634;2022-11-27T00:11:17;-1.60;99.90
21481;DHT22;10902;48.158;8.634;2022-11-27T00:13:43;-1.60;99.90
21481;DHT22;10902;48.158;8.634;2022-11-27T00:16:09;-1.60;99.90
21481;DHT22;10902;48.158;8.634;2022-11-27T00:18:35;-1.70;99.90
21481;DHT22;10902;48.158;8.634;2022-11-27T00:21:02;-1.70;99.90
21481;DHT22;10902;48.158;8.634;2022-11-27T00:23:28;-1.70;99.90
21481;DHT22;10902;48.158;8.634;2022-11-27T00:25:55;-1.80;99.90
21481;DHT22;10902;48.158;8.634;2022-11-27T00:28:23;-1.80;99.90
21481;DHT22;10902;48.158;8.634;2022-11-27T00:30:49;-1.90;99.90
21481;DHT22;10902;48.158;8.634;2022-11-27T00:33:15;-1.90;99.90
21481;DHT22;10902;48.158;8.634;2022-11-27T00:35:41;-2.00;99.90
21481;DHT22;10902;48.158;8.634;2022-11-27T00:38:07;-1.90;99.90
21481;DHT22;10902;48.158;8.634;2022-11-27T00:40:33;-1.90;99.90
21481;DHT22;10902;48.158;8.634;2022-11-27T00:42:59;-2.00;99.90
21481;DHT22;10902;48.158;8.634;2022-11-27T00:45:26;-2.00;99.90
21481;DHT22;10902;48.158;8.634;2022-11-27T00:47:52;-2.00;99.90
21481;DHT22;10902;48.158;8.634;2022-11-27T00:50:17;-2.10;99.90
21481;DHT22;10902;48.158;8.634;2022-11-27T00:52:43;-2.20;99.90
21481;DHT22;10902;48.158;8.634;2022-11-27T00:55:09;-2.20;99.90
21481;DHT22;10902;48.158;8.634;2022-11-27T00:57:34;-2.20;99.90
21481;DHT22;10902;48.158;8.634;2022-11-27T01:00:00;-2.10;99.90
21481;DHT22;10902;48.158;8.634;2022-11-27T01:02:26;-2.10;99.90
21481;DHT22;10902;48.158;8.634;2022-11-27T01:04:51;-1.90;99.90
21481;DHT22;10902;48.158;8.634;2022-11-27T01:07:17;-1.90;99.90
21481;DHT22;10902;48.158;8.634;2022-11-27T01:09:43;-1.90;99.90
21481;DHT22;10902;48.158;8.634;2022-11-27T01:12:08;-2.00;99.90
21481;DHT22;10902;48.158;8.634;2022-11-27T01:14:34;-1.90;99.90
21481;DHT22;10902;48.158;8.634;2022-11-27T01:17:00;-1.90;99.90
21481;DHT22;10902;48.158;8.634;2022-11-27T01:19:25;-2.00;99.90
21481;DHT22;10902;48.158;8.634;2022-11-27T01:21:51;-2.00;99.90
21481;DHT22;10902;48.158;8.634;2022-11-27T01:24:16;-2.10;99.90
21481;DHT22;10902;48.158;8.634;2022-11-27T01:26:43;-2.10;99.90
21481;DHT22;10902;48.158;8.634;2022-11-27T01:29:09;-2.10;99.90
21481;DHT22;10902;48.158;8.634;2022-11-27T01:31:35;-2.10;99.90
21481;DHT22;10902;48.158;8.634;2022-11-27T01:34:06;-2.10;99.90
21481;DHT22;10902;48.158;8.634;2022-11-27T01:36:33;-2.10;99.90
21481;DHT22;10902;48.158;8.634;2022-11-27T01:39:00;-2.10;99.90
21481;DHT22;10902;48.158;8.634;2022-11-27T01:41:34;-2.10;99.90
21481;DHT22;10902;48.158;8.634;2022-11-27T01:44:03;-2.10;99.90
21481;DHT22;10902;48.158;8.634;2022-11-27T01:46:51;-2.00;99.90
21481;DHT22;10902;48.158;8.634;2022-11-27T01:49:35;-2.00;99.90
21481;DHT22;10902;48.158;8.634;2022-11-27T01:57:15;-2.20;99.90
21481;DHT22;10902;48.158;8.634;2022-11-27T01:59:43;-2.20;99.90
21481;DHT22;10902;48.158;8.634;2022-11-27T02:02:09;-2.30;99.90
21481;DHT22;10902;48.158;8.634;2022-11-27T02:04:35;-2.30;99.90
21481;DHT22;10902;48.158;8.634;2022-11-27T02:07:01;-2.40;99.90
21481;DHT22;10902;48.158;8.634;2022-11-27T02:09:27;-2.30;99.90
21481;DHT22;10902;48.158;8.634;2022-11-27T02:12:21;-2.20;99.90
21481;DHT22;10902;48.158;8.634;2022-11-27T02:37:00;-2.10;99.90
21481;DHT22;10902;48.158;8.634;2022-11-27T02:39:49;-2.00;99.90
21481;DHT22;10902;48.158;8.634;2022-11-27T02:42:19;-2.10;99.90
21481;DHT22;10902;48.158;8.634;2022-11-27T02:44:52;-2.10;99.90
21481;DHT22;10902;48.158;8.634;2022-11-27T02:47:20;-2.10;99.90
21481;DHT22;10902;48.158;8.634;2022-11-27T02:49:47;-2.10;99.90
21481;DHT22;10902;48.158;8.634;2022-11-27T02:52:16;-2.10;99.90
21481;DHT22;10902;48.158;8.634;2022-11-27T02:54:44;-2.00;99.90
21481;DHT22;10902;48.158;8.634;2022-11-27T02:57:11;-2.00;99.90
21481;DHT22;10902;48.158;8.634;2022-11-27T02:59:38;-2.10;99.90
21481;DHT22;10902;48.158;8.634;2022-11-27T03:02:11;-2.10;99.90
21481;DHT22;10902;48.158;8.634;2022-11-27T03:04:42;-2.20;99.90
21481;DHT22;10902;48.158;8.634;2022-11-27T03:07:13;-2.10;99.90
21481;DHT22;10902;48.158;8.634;2022-11-27T03:09:46;-2.10;99.90
21481;DHT22;10902;48.158;8.634;2022-11-27T03:12:15;-2.20;99.90
21481;DHT22;10902;48.158;8.634;2022-11-27T03:14:42;-2.30;99.90
21481;DHT22;10902;48.158;8.634;2022-11-27T03:22:33;-2.30;99.90
21481;DHT22;10902;48.158;8.634;2022-11-27T03:24:59;-2.30;99.90
21481;DHT22;10902;48.158;8.634;2022-11-27T03:27:31;-2.30;99.90
21481;DHT22;10902;48.158;8.634;2022-11-27T03:30:01;-2.30;99.90
21481;DHT22;10902;48.158;8.634;2022-11-27T03:32:27;-2.30;99.90
21481;DHT22;10902;48.158;8.634;2022-11-27T03:34:55;-2.30;99.90
21481;DHT22;10902;48.158;8.634;2022-11-27T03:37:21;-2.30;99.90
21481;DHT22;10902;48.158;8.634;2022-11-27T03:39:48;-2.30;99.90
21481;DHT22;10902;48.158;8.634;2022-11-27T03:42:28;-2.40;99.90
21481;DHT22;10902;48.158;8.634;2022-11-27T03:45:16;-2.50;99.90
21481;DHT22;10902;48.158;8.634;2022-11-27T03:56:56;-2.40;99.90
21481;DHT22;10902;48.158;8.634;2022-11-27T03:59:29;-2.40;99.90
21481;DHT22;10902;48.158;8.634;2022-11-27T04:01:56;-2.60;99.90
21481;DHT22;10902;48.158;8.634;2022-11-27T04:04:21;-2.70;99.90
21481;DHT22;10902;48.158;8.634;2022-11-27T04:06:47;-2.80;99.90
21481;DHT22;10902;48.158;8.634;2022-11-27T04:09:12;-2.70;99.90
21481;DHT22;10902;48.158;8.634;2022-11-27T04:11:38;-2.70;99.90
21481;DHT22;10902;48.158;8.634;2022-11-27T04:14:04;-2.70;99.90
21481;DHT22;10902;48.158;8.634;2022-11-27T04:16:30;-2.80;99.90
21481;DHT22;10902;48.158;8.634;2022-11-27T04:18:55;-2.80;99.90
21481;DHT22;10902;48.158;8.634;2022-11-27T04:21:21;-2.70;99.90
21481;DHT22;10902;48.158;8.634;2022-11-27T04:23:46;-2.80;99.90
21481;DHT22;10902;48.158;8.634;2022-11-27T04:26:12;-2.90;99.90
21481;DHT22;10902;48.158;8.634;2022-11-27T04:28:38;-2.80;99.90
21481;DHT22;10902;48.158;8.634;2022-11-27T04:31:03;-2.80;99.90
21481;DHT22;10902;48.158;8.634;2022-11-27T04:33:29;-2.70;99.90
21481;DHT22;10902;48.158;8.634;2022-11-27T04:35:55;-2.70;99.90
21481;DHT22;10902;48.158;8.634;2022-11-27T04:38:21;-2.70;99.90
21481;DHT22;10902;48.158;8.634;2022-11-27T04:40:46;-2.70;99.90
21481;DHT22;10902;48.158;8.634;2022-11-27T04:43:12;-2.70;99.90
21481;DHT22;10902;48.158;8.634;2022-11-27T04:45:38;-2.70;99.90
21481;DHT22;10902;48.158;8.634;2022-11-27T04:48:05;-2.70;99.90
21481;DHT22;10902;48.158;8.634;2022-11-27T04:50:31;-2.70;99.90
21481;DHT22;10902;48.158;8.634;2022-11-27T04:52:56;-2.70;99.90
21481;DHT22;10902;48.158;8.634;2022-11-27T04:55:22;-2.70;99.90
21481;DHT22;10902;48.158;8.634;2022-11-27T04:57:48;-2.70;99.90
21481;DHT22;10902;48.158;8.634;2022-11-27T05:00:14;-2.50;99.90
21481;DHT22;10902;48.158;8.634;2022-11-27T05:02:40;-2.20;99.90
21481;DHT22;10902;48.158;8.634;2022-11-27T05:05:06;-2.10;99.90
21481;DHT22;10902;48.158;8.634;2022-11-27T05:07:31;-2.30;99.90
21481;DHT22;10902;48.158;8.634;2022-11-27T05:09:57;-2.40;99.90
21481;DHT22;10902;48.158;8.634;2022-11-27T05:12:22;-2.40;99.90
21481;DHT22;10902;48.158;8.634;2022-11-27T05:14:48;-2.50;99.90
21481;DHT22;10902;48.158;8.634;2022-11-27T05:17:14;-2.50;99.90
21481;DHT22;10902;48.158;8.634;2022-11-27T05:19:40;-2.50;99.90
21481;DHT22;10902;48.158;8.634;2022-11-27T05:22:05;-2.50;99.90
21481;DHT22;10902;48.158;8.634;2022-11-27T05:24:31;-2.40;99.90
21481;DHT22;10902;48.158;8.634;2022-11-27T05:26:57;-2.20;99.90
21481;DHT22;10902;48.158;8.634;2022-11-27T05:29:23;-2.30;99.90
21481;DHT22;10902;48.158;8.634;2022-11-27T05:31:50;-2.30;99.90
21481;DHT22;10902;48.158;8.634;2022-11-27T05:34:16;-2.20;99.90
21481;DHT22;10902;48.158;8.634;2022-11-27T05:36:41;-2.10;99.90
21481;DHT22;10902;48.158;8.634;2022-11-27T05:39:09;-2.10;99.90
21481;DHT22;10902;48.158;8.634;2022-11-27T05:41:36;-2.50;99.90
21481;DHT22;10902;48.158;8.634;2022-11-27T05:44:03;-2.70;99.90
21481;DHT22;10902;48.158;8.634;2022-11-27T05:46:28;-2.70;99.90
21481;DHT22;10902;48.158;8.634;2022-11-27T05:48:54;-2.80;99.90
21481;DHT22;10902;48.158;8.634;2022-11-27T05:51:20;-2.80;99.90
21481;DHT22;10902;48.158;8.634;2022-11-27T05:53:46;-2.90;99.90
21481;DHT22;10902;48.158;8.634;2022-11-27T05:56:14;-2.90;99.90
21481;DHT22;10902;48.158;8.634;2022-11-27T05:58:41;-2.90;99.90
21481;DHT22;10902;48.158;8.634;2022-11-27T06:01:07;-2.90;99.90
21481;DHT22;10902;48.158;8.634;2022-11-27T06:03:33;-2.90;99.90
21481;DHT22;10902;48.158;8.634;2022-11-27T06:06:05;-2.80;99.90
21481;DHT22;10902;48.158;8.634;2022-11-27T06:08:31;-2.70;99.90
21481;DHT22;10902;48.158;8.634;2022-11-27T06:10:56;-2.70;99.90
21481;DHT22;10902;48.158;8.634;2022-11-27T06:13:22;-2.60;99.90
21481;DHT22;10902;48.158;8.634;2022-11-27T06:15:47;-2.50;99.90
21481;DHT22;10902;48.158;8.634;2022-11-27T06:18:13;-2.50;99.90
21481;DHT22;10902;48.158;8.634;2022-11-27T06:20:38;-2.50;99.90
21481;DHT22;10902;48.158;8.634;2022-11-27T06:23:04;-2.50;99.90
21481;DHT22;10902;48.158;8.634;2022-11-27T06:25:29;-2.30;99.90
21481;DHT22;10902;48.158;8.634;2022-11-27T06:27:55;-2.20;99.90
21481;DHT22;10902;48.158;8.634;2022-11-27T06:30:21;-2.00;99.90
21481;DHT22;10902;48.158;8.634;2022-11-27T06:32:46;-2.10;99.90
21481;DHT22;10902;48.158;8.634;2022-11-27T06:35:12;-2.20;99.90
21481;DHT22;10902;48.158;8.634;2022-11-27T06:37:37;-2.30;99.90
21481;DHT22;10902;48.158;8.634;2022-11-27T06:40:03;-2.40;99.90
21481;DHT22;10902;48.158;8.634;2022-11-27T06:42:29;-2.40;99.90
21481;DHT22;10902;48.158;8.634;2022-11-27T06:44:56;-2.40;99.90
21481;DHT22;10902;48.158;8.634;2022-11-27T06:47:22;-2.30;99.90
21481;DHT22;10902;48.158;8.634;2022-11-27T06:49:47;-2.20;99.90
21481;DHT22;10902;48.158;8.634;2022-11-27T06:52:13;-2.30;99.90
21481;DHT22;10902;48.158;8.634;2022-11-27T06:54:38;-2.30;99.90
21481;DHT22;10902;48.158;8.634;2022-11-27T06:57:04;-2.30;99.90
21481;DHT22;10902;48.158;8.634;2022-11-27T06:59:29;-2.30;99.90
21481;DHT22;10902;48.158;8.634;2022-11-27T07:01:55;-2.20;99.90
21481;DHT22;10902;48.158;8.634;2022-11-27T07:04:21;-2.10;99.90
21481;DHT22;10902;48.158;8.634;2022-11-27T07:06:47;-2.20;99.90
21481;DHT22;10902;48.158;8.634;2022-11-27T07:09:12;-2.20;99.90
21481;DHT22;10902;48.158;8.634;2022-11-27T07:11:38;-2.20;99.90
21481;DHT22;10902;48.158;8.634;2022-11-27T07:14:05;-2.10;99.90
21481;DHT22;10902;48.158;8.634;2022-11-27T07:16:33;-2.10;99.90
21481;DHT22;10902;48.158;8.634;2022-11-27T07:19:03;-2.10;99.90
21481;DHT22;10902;48.158;8.634;2022-11-27T07:21:29;-2.00;99.90
21481;DHT22;10902;48.158;8.634;2022-11-27T07:23:55;-1.90;99.90
21481;DHT22;10902;48.158;8.634;2022-11-27T07:26:23;-1.90;99.90
21481;DHT22;10902;48.158;8.634;2022-11-27T07:28:49;-1.70;99.90
21481;DHT22;10902;48.158;8.634;2022-11-27T07:31:27;-1.70;99.90
21481;DHT22;10902;48.158;8.634;2022-11-27T07:33:53;-1.70;99.90
21481;DHT22;10902;48.158;8.634;2022-11-27T07:36:21;-1.90;99.90
21481;DHT22;10902;48.158;8.634;2022-11-27T07:38:47;-1.80;99.90
21481;DHT22;10902;48.158;8.634;2022-11-27T07:41:14;-1.80;99.90
21481;DHT22;10902;48.158;8.634;2022-11-27T07:43:41;-1.80;99.90
21481;DHT22;10902;48.158;8.634;2022-11-27T07:46:10;-1.80;99.90
21481;DHT22;10902;48.158;8.634;2022-11-27T07:48:36;-1.70;99.90
21481;DHT22;10902;48.158;8.634;2022-11-27T07:51:08;-1.50;99.90
21481;DHT22;10902;48.158;8.634;2022-11-27T07:53:35;-1.20;99.90
21481;DHT22;10902;48.158;8.634;2022-11-27T07:56:02;-1.00;99.90
21481;DHT22;10902;48.158;8.634;2022-11-27T07:58:28;-0.90;99.90
21481;DHT22;10902;48.158;8.634;2022-11-27T08:00:54;-0.90;99.90
21481;DHT22;10902;48.158;8.634;2022-11-27T08:03:21;-1.00;99.90
21481;DHT22;10902;48.158;8.634;2022-11-27T08:05:46;-0.90;99.90
21481;DHT22;10902;48.158;8.634;2022-11-27T08:08:12;-0.80;99.90
21481;DHT22;10902;48.158;8.634;2022-11-27T08:10:38;-0.70;99.90
21481;DHT22;10902;48.158;8.634;2022-11-27T08:13:04;-0.80;99.90
21481;DHT22;10902;48.158;8.634;2022-11-27T08:15:30;-0.90;99.90
21481;DHT22;10902;48.158;8.634;2022-11-27T08:17:56;-0.90;99.90
21481;DHT22;10902;48.158;8.634;2022-11-27T08:20:22;-0.70;99.90
21481;DHT22;10902;48.158;8.634;2022-11-27T08:22:48;-0.50;99.90
21481;DHT22;10902;48.158;8.634;2022-11-27T08:25:14;-0.50;99.90
21481;DHT22;10902;48.158;8.634;2022-11-27T08:27:39;-0.50;99.90
21481;DHT22;10902;48.158;8.634;2022-11-27T08:30:06;-0.50;99.90
21481;DHT22;10902;48.158;8.634;2022-11-27T08:32:32;-0.20;99.90
21481;DHT22;10902;48.158;8.634;2022-11-27T08:34:58;0.00;99.90
21481;DHT22;10902;48.158;8.634;2022-11-27T08:37:23;0.00;99.90
21481;DHT22;10902;48.158;8.634;2022-11-27T08:39:49;0.00;99.90
21481;DHT22;10902;48.158;8.634;2022-11-27T08:42:15;0.00;99.90
21481;DHT22;10902;48.158;8.634;2022-11-27T08:44:40;0.10;99.90
21481;DHT22;10902;48.158;8.634;2022-11-27T08:47:06;0.20;99.90
21481;DHT22;10902;48.158;8.634;2022-11-27T08:49:32;0.20;99.90
21481;DHT22;10902;48.158;8.634;2022-11-27T08:51:58;0.20;99.90
21481;DHT22;10902;48.158;8.634;2022-11-27T08:54:23;0.20;99.90
21481;DHT22;10902;48.158;8.634;2022-11-27T08:56:58;0.20;99.90
21481;DHT22;10902;48.158;8.634;2022-11-27T08:59:24;0.20;99.90
21481;DHT22;10902;48.158;8.634;2022-11-27T09:01:49;0.20;99.90
21481;DHT22;10902;48.158;8.634;2022-11-27T09:04:15;0.30;99.90
21481;DHT22;10902;48.158;8.634;2022-11-27T09:06:43;0.40;99.90
21481;DHT22;10902;48.158;8.634;2022-11-27T09:09:17;0.50;99.90
21481;DHT22;10902;48.158;8.634;2022-11-27T09:12:11;0.50;99.90
21481;DHT22;10902;48.158;8.634;2022-11-27T09:14:57;0.60;99.90
21481;DHT22;10902;48.158;8.634;2022-11-27T09:17:23;0.80;99.90
21481;DHT22;10902;48.158;8.634;2022-11-27T09:19:49;1.00;99.90
21481;DHT22;10902;48.158;8.634;2022-11-27T09:22:14;1.00;99.90
21481;DHT22;10902;48.158;8.634;2022-11-27T09:24:40;1.10;99.90
21481;DHT22;10902;48.158;8.634;2022-11-27T09:27:08;1.10;99.90
21481;DHT22;10902;48.158;8.634;2022-11-27T09:29:34;1.20;99.90
21481;DHT22;10902;48.158;8.634;2022-11-27T09:31:59;1.20;99.90
21481;DHT22;10902;48.158;8.634;2022-11-27T09:34:25;1.30;99.90
21481;DHT22;10902;48.158;8.634;2022-11-27T09:36:51;1.40;99.90
21481;DHT22;10902;48.158;8.634;2022-11-27T09:39:16;1.50;99.90
21481;DHT22;10902;48.158;8.634;2022-11-27T09:41:45;1.60;99.90
21481;DHT22;10902;48.158;8.634;2022-11-27T09:44:36;1.80;99.90
21481;DHT22;10902;48.158;8.634;2022-11-27T09:47:20;2.10;99.90
21481;DHT22;10902;48.158;8.634;2022-11-27T09:49:57;2.30;99.90
21481;DHT22;10902;48.158;8.634;2022-11-27T09:52:48;2.40;99.90
21481;DHT22;10902;48.158;8.634;2022-11-27T09:58:03;2.40;99.90
21481;DHT22;10902;48.158;8.634;2022-11-27T10:00:29;2.40;99.90
21481;DHT22;10902;48.158;8.634;2022-11-27T10:02:55;2.50;99.90
21481;DHT22;10902;48.158;8.634;2022-11-27T10:05:23;2.50;99.90
21481;DHT22;10902;48.158;8.634;2022-11-27T10:13:09;2.70;99.90
21481;DHT22;10902;48.158;8.634;2022-11-27T10:15:59;2.90;99.90
21481;DHT22;10902;48.158;8.634;2022-11-27T10:18:44;3.20;99.90
21481;DHT22;10902;48.158;8.634;2022-11-27T10:21:48;3.60;99.90
21481;DHT22;10902;48.158;8.634;2022-11-27T10:26:48;3.70;99.90
21481;DHT22;10902;48.158;8.634;2022-11-27T10:31:47;3.80;99.90
21481;DHT22;10902;48.158;8.634;2022-11-27T10:34:42;3.80;99.90
21481;DHT22;10902;48.158;8.634;2022-11-27T10:37:19;3.60;99.90
21481;DHT22;10902;48.158;8.634;2022-11-27T10:42:44;3.40;99.90
21481;DHT22;10902;48.158;8.634;2022-11-27T10:48:24;3.50;99.90
21481;DHT22;10902;48.158;8.634;2022-11-27T10:50:50;3.70;99.90
21481;DHT22;10902;48.158;8.634;2022-11-27T10:53:33;3.40;99.90
21481;DHT22;10902;48.158;8.634;2022-11-27T11:01:21;3.80;99.90
21481;DHT22;10902;48.158;8.634;2022-11-27T11:03:47;3.90;99.90
21481;DHT22;10902;48.158;8.634;2022-11-27T11:08:38;4.00;99.90
21481;DHT22;10902;48.158;8.634;2022-11-27T11:11:05;3.80;99.90
21481;DHT22;10902;48.158;8.634;2022-11-27T11:16:15;3.60;99.90
21481;DHT22;10902;48.158;8.634;2022-11-27T11:24:03;4.50;99.90
21481;DHT22;10902;48.158;8.634;2022-11-27T11:26:39;4.60;99.90
21481;DHT22;10902;48.158;8.634;2022-11-27T11:29:20;4.60;99.90
21481;DHT22;10902;48.158;8.634;2022-11-27T11:31:50;4.10;99.90
21481;DHT22;10902;48.158;8.634;2022-11-27T11:34:25;3.80;99.90
21481;DHT22;10902;48.158;8.634;2022-11-27T11:36:58;3.80;99.90
21481;DHT22;10902;48.158;8.634;2022-11-27T11:39:33;3.90;99.90
21481;DHT22;10902;48.158;8.634;2022-11-27T11:42:08;3.80;99.90
21481;DHT22;10902;48.158;8.634;2022-11-27T11:44:37;3.70;99.90
21481;DHT22;10902;48.158;8.634;2022-11-27T11:47:03;3.80;99.90
21481;DHT22;10902;48.158;8.634;2022-11-27T11:49:30;3.80;99.90
21481;DHT22;10902;48.158;8.634;2022-11-27T11:52:20;3.90;99.90
21481;DHT22;10902;48.158;8.634;2022-11-27T12:00:57;4.20;99.90
21481;DHT22;10902;48.158;8.634;2022-11-27T12:06:34;4.30;99.90
21481;DHT22;10902;48.158;8.634;2022-11-27T12:12:02;4.00;99.90
21481;DHT22;10902;48.158;8.634;2022-11-27T12:15:01;4.30;99.90
21481;DHT22;10902;48.158;8.634;2022-11-27T12:17:53;4.30;99.90
21481;DHT22;10902;48.158;8.634;2022-11-27T12:20:38;4.40;99.90
21481;DHT22;10902;48.158;8.634;2022-11-27T12:23:16;4.10;99.90
21481;DHT22;10902;48.158;8.634;2022-11-27T12:39:32;3.80;99.90
21481;DHT22;10902;48.158;8.634;2022-11-27T12:42:31;3.80;99.90
21481;DHT22;10902;48.158;8.634;2022-11-27T12:47:38;3.80;99.90
21481;DHT22;10902;48.158;8.634;2022-11-27T12:53:05;3.70;99.90
21481;DHT22;10902;48.158;8.634;2022-11-27T12:55:37;3.70;99.90
21481;DHT22;10902;48.158;8.634;2022-11-27T12:58:09;3.70;99.90
21481;DHT22;10902;48.158;8.634;2022-11-27T13:00:39;3.80;99.90
21481;DHT22;10902;48.158;8.634;2022-11-27T13:03:20;3.70;99.90
21481;DHT22;10902;48.158;8.634;2022-11-27T13:05:57;3.80;99.90
21481;DHT22;10902;48.158;8.634;2022-11-27T13:11:09;4.00;99.90
21481;DHT22;10902;48.158;8.634;2022-11-27T13:13:45;4.20;99.90
21481;DHT22;10902;48.158;8.634;2022-11-27T13:16:32;4.20;99.90
21481;DHT22;10902;48.158;8.634;2022-11-27T13:21:44;3.80;99.90
21481;DHT22;10902;48.158;8.634;2022-11-27T13:24:11;3.80;99.90
21481;DHT22;10902;48.158;8.634;2022-11-27T13:31:56;3.70;99.90
21481;DHT22;10902;48.158;8.634;2022-11-27T13:34:25;3.70;99.90
21481;DHT22;10902;48.158;8.634;2022-11-27T13:37:02;3.70;99.90
21481;DHT22;10902;48.158;8.634;2022-11-27T13:39:32;3.70;99.90
21481;DHT22;10902;48.158;8.634;2022-11-27T13:42:17;3.60;99.90
21481;DHT22;10902;48.158;8.634;2022-11-27T13:44:55;3.70;99.90
21481;DHT22;10902;48.158;8.634;2022-11-27T13:47:22;3.60;99.90
21481;DHT22;10902;48.158;8.634;2022-11-27T13:50:13;3.60;99.90
21481;DHT22;10902;48.158;8.634;2022-11-27T13:53:01;3.60;99.90
21481;DHT22;10902;48.158;8.634;2022-11-27T13:55:38;3.70;99.90
21481;DHT22;10902;48.158;8.634;2022-11-27T13:58:05;3.70;99.90
21481;DHT22;10902;48.158;8.634;2022-11-27T14:00:37;3.70;99.90
21481;DHT22;10902;48.158;8.634;2022-11-27T14:03:05;3.80;99.90
21481;DHT22;10902;48.158;8.634;2022-11-27T14:05:49;3.70;99.90
21481;DHT22;10902;48.158;8.634;2022-11-27T14:08:26;3.70;99.90
21481;DHT22;10902;48.158;8.634;2022-11-27T14:10:58;3.70;99.90
21481;DHT22;10902;48.158;8.634;2022-11-27T14:13:47;3.70;99.90
21481;DHT22;10902;48.158;8.634;2022-11-27T14:16:25;3.70;99.90
21481;DHT22;10902;48.158;8.634;2022-11-27T14:18:54;3.70;99.90
21481;DHT22;10902;48.158;8.634;2022-11-27T14:24:37;3.60;99.90
21481;DHT22;10902;48.158;8.634;2022-11-27T14:27:24;3.50;99.90
21481;DHT22;10902;48.158;8.634;2022-11-27T14:29:50;3.50;99.90
21481;DHT22;10902;48.158;8.634;2022-11-27T14:32:18;3.50;99.90
21481;DHT22;10902;48.158;8.634;2022-11-27T14:34:44;3.40;99.90
21481;DHT22;10902;48.158;8.634;2022-11-27T14:37:27;3.40;99.90
21481;DHT22;10902;48.158;8.634;2022-11-27T14:39:53;3.40;99.90
21481;DHT22;10902;48.158;8.634;2022-11-27T14:42:20;3.40;99.90
21481;DHT22;10902;48.158;8.634;2022-11-27T14:44:46;3.30;99.90
21481;DHT22;10902;48.158;8.634;2022-11-27T14:47:18;3.30;99.90
21481;DHT22;10902;48.158;8.634;2022-11-27T14:49:45;3.30;99.90
21481;DHT22;10902;48.158;8.634;2022-11-27T14:52:14;3.30;99.90
21481;DHT22;10902;48.158;8.634;2022-11-27T14:54:43;3.30;99.90
21481;DHT22;10902;48.158;8.634;2022-11-27T14:57:26;3.40;99.90
21481;DHT22;10902;48.158;8.634;2022-11-27T15:00:24;3.40;99.90
21481;DHT22;10902;48.158;8.634;2022-11-27T15:02:54;3.40;99.90
21481;DHT22;10902;48.158;8.634;2022-11-27T15:05:31;3.40;99.90
21481;DHT22;10902;48.158;8.634;2022-11-27T15:07:59;3.40;99.90
21481;DHT22;10902;48.158;8.634;2022-11-27T15:10:35;3.40;99.90
21481;DHT22;10902;48.158;8.634;2022-11-27T15:13:02;3.40;99.90
21481;DHT22;10902;48.158;8.634;2022-11-27T15:15:32;3.30;99.90
21481;DHT22;10902;48.158;8.634;2022-11-27T15:18:03;3.30;99.90
21481;DHT22;10902;48.158;8.634;2022-11-27T15:20:41;3.30;99.90
21481;DHT22;10902;48.158;8.634;2022-11-27T15:23:34;3.20;99.90
21481;DHT22;10902;48.158;8.634;2022-11-27T15:28:32;3.10;99.90
21481;DHT22;10902;48.158;8.634;2022-11-27T15:30:59;3.10;99.90
21481;DHT22;10902;48.158;8.634;2022-11-27T15:33:30;3.10;99.90
21481;DHT22;10902;48.158;8.634;2022-11-27T15:36:17;3.00;99.90
21481;DHT22;10902;48.158;8.634;2022-11-27T15:38:43;3.00;99.90
21481;DHT22;10902;48.158;8.634;2022-11-27T15:41:27;3.00;99.90
21481;DHT22;10902;48.158;8.634;2022-11-27T15:43:54;3.00;99.90
21481;DHT22;10902;48.158;8.634;2022-11-27T15:46:29;2.90;99.90
21481;DHT22;10902;48.158;8.634;2022-11-27T15:48:56;2.90;99.90
21481;DHT22;10902;48.158;8.634;2022-11-27T15:51:22;2.90;99.90
21481;DHT22;10902;48.158;8.634;2022-11-27T15:53:48;2.90;99.90
21481;DHT22;10902;48.158;8.634;2022-11-27T15:56:14;2.90;99.90
21481;DHT22;10902;48.158;8.634;2022-11-27T15:58:40;2.90;99.90
21481;DHT22;10902;48.158;8.634;2022-11-27T16:01:06;2.90;99.90
21481;DHT22;10902;48.158;8.634;2022-11-27T16:03:32;2.80;99.90
21481;DHT22;10902;48.158;8.634;2022-11-27T16:06:05;2.80;99.90
21481;DHT22;10902;48.158;8.634;2022-11-27T16:08:31;2.80;99.90
21481;DHT22;10902;48.158;8.634;2022-11-27T16:11:01;2.80;99.90
21481;DHT22;10902;48.158;8.634;2022-11-27T16:13:29;2.70;99.90
21481;DHT22;10902;48.158;8.634;2022-11-27T16:15:59;2.70;99.90
21481;DHT22;10902;48.158;8.634;2022-11-27T16:18:24;2.70;99.90
21481;DHT22;10902;48.158;8.634;2022-11-27T16:20:50;2.60;99.90
21481;DHT22;10902;48.158;8.634;2022-11-27T16:23:15;2.60;99.90
21481;DHT22;10902;48.158;8.634;2022-11-27T16:25:41;2.60;99.90
21481;DHT22;10902;48.158;8.634;2022-11-27T16:28:06;2.60;99.90
21481;DHT22;10902;48.158;8.634;2022-11-27T16:30:32;2.70;99.90
21481;DHT22;10902;48.158;8.634;2022-11-27T16:32:57;2.60;99.90
21481;DHT22;10902;48.158;8.634;2022-11-27T16:35:24;2.60;99.90
21481;DHT22;10902;48.158;8.634;2022-11-27T16:37:50;2.60;99.90
21481;DHT22;10902;48.158;8.634;2022-11-27T16:40:15;2.60;99.90
21481;DHT22;10902;48.158;8.634;2022-11-27T16:42:41;2.50;99.90
21481;DHT22;10902;48.158;8.634;2022-11-27T16:45:07;2.50;99.90
21481;DHT22;10902;48.158;8.634;2022-11-27T16:47:32;2.50;99.90
21481;DHT22;10902;48.158;8.634;2022-11-27T16:49:58;2.50;99.90
21481;DHT22;10902;48.158;8.634;2022-11-27T16:52:24;2.50;99.90
21481;DHT22;10902;48.158;8.634;2022-11-27T16:54:50;2.40;99.90
21481;DHT22;10902;48.158;8.634;2022-11-27T16:57:18;2.40;99.90
21481;DHT22;10902;48.158;8.634;2022-11-27T16:59:44;2.50;99.90
21481;DHT22;10902;48.158;8.634;2022-11-27T17:02:10;2.50;99.90
21481;DHT22;10902;48.158;8.634;2022-11-27T17:04:35;2.40;99.90
21481;DHT22;10902;48.158;8.634;2022-11-27T17:07:01;2.50;99.90
21481;DHT22;10902;48.158;8.634;2022-11-27T17:09:26;2.50;99.90
21481;DHT22;10902;48.158;8.634;2022-11-27T17:11:54;2.50;99.90
21481;DHT22;10902;48.158;8.634;2022-11-27T17:14:19;2.50;99.90
21481;DHT22;10902;48.158;8.634;2022-11-27T17:16:45;2.50;99.90
21481;DHT22;10902;48.158;8.634;2022-11-27T17:19:12;2.50;99.90
21481;DHT22;10902;48.158;8.634;2022-11-27T17:21:38;2.40;99.90
21481;DHT22;10902;48.158;8.634;2022-11-27T17:24:06;2.40;99.90
21481;DHT22;10902;48.158;8.634;2022-11-27T17:26:33;2.40;99.90
21481;DHT22;10902;48.158;8.634;2022-11-27T17:28:59;2.40;99.90
21481;DHT22;10902;48.158;8.634;2022-11-27T17:31:29;2.40;99.90
21481;DHT22;10902;48.158;8.634;2022-11-27T17:33:58;2.30;99.90
21481;DHT22;10902;48.158;8.634;2022-11-27T17:36:25;2.30;99.90
21481;DHT22;10902;48.158;8.634;2022-11-27T17:38:51;2.30;99.90
21481;DHT22;10902;48.158;8.634;2022-11-27T17:41:18;2.30;99.90
21481;DHT22;10902;48.158;8.634;2022-11-27T17:43:44;2.20;99.90
21481;DHT22;10902;48.158;8.634;2022-11-27T17:46:17;2.30;99.90
21481;DHT22;10902;48.158;8.634;2022-11-27T17:48:43;2.30;99.90
21481;DHT22;10902;48.158;8.634;2022-11-27T17:51:09;2.40;99.90
21481;DHT22;10902;48.158;8.634;2022-11-27T17:53:35;2.40;99.90
21481;DHT22;10902;48.158;8.634;2022-11-27T17:56:02;2.40;99.90